Easterwood Field
KCLL : now visible

Airfield :











YOU CAN JOIN US ON...

 
LOGIN :

Register | Disclaimer

   EN    FR    IT 

 









Legend :    VFR   Marginal VFR   IFR   Intensive IFR   Very Intensive IFR
Visi :
Ceiling :
>= 8 km
>= 3000ft
5 to 8 km
1000 to 3000 ft
1500m to 5 km
500 to 1000 ft
800 to 1500m
200 to 500 ft
< 800m
< 200 ft
Symbols :   Thunderstorms  Fog  Heavy snow  Heavy precipitations  Wind > 20 kt







- Airport Elevation : 320 ft
- IATA code : CLL


KCLL - Easterwood Field

CURRENT METAR :
  • 210553Z AUTO 18007KT 10SM CLR 27/23 A2994 RMK AO2 SLP132 T02720228 10344 20272 403610250 51005

EXPIRED METARs :
  • 210453Z AUTO 18009KT 10SM CLR 28/23 A2994 RMK AO2 SLP131 T02830228
  • 210353Z AUTO 17011KT 10SM CLR 29/22 A2994 RMK AO2 SLP132 T02940222

TAF KCLL
Valid from the 21 at 06:00 until the 22 at 06:00 UTC


210520Z 2106/2206 17009KT P6SM FEW250
FM210800 18004KT P6SM SCT015
FM211000 VRB04KT P6SM SCT008 BKN015
FM211500 19007KT P6SM SCT025
FM212100 16009KT P6SM VCTS SCT040CB BKN250
FM220100 18005KT P6SM SCT250
KZHU FIR / North America



MET'MAP, your aeronautical weather chart ! - Copyright ORBIFLY December 2007 - Disclaimer

ORBIFLY MET'MAP TEAM :

Programming & Development : Alexandra Zaïnal
Concept & Development : Baudouin d'Aumeries
Co-Development & Prog : Marc-Olivier Méhu
Technical & hardware support : Manuel Goepfert

Contact : metmap@orbifly.com




SOURCES & CREDITS :

   NOAA       Earth
Advisory